createdAt,value
2019-02-25T00:00:44.265Z,26.47
2019-02-25T00:03:15.097Z,27.67
2019-02-25T00:05:57.917Z,25.30
2019-02-25T00:08:29.485Z,26.67
2019-02-25T00:11:05.688Z,24.97
2019-02-25T00:13:40.237Z,25.10
2019-02-25T00:16:13.681Z,25.20
2019-02-25T00:18:43.590Z,26.00
2019-02-25T00:21:20.499Z,25.57
2019-02-25T00:23:54.188Z,26.97
2019-02-25T00:26:27.546Z,27.20
2019-02-25T00:29:00.702Z,26.03
2019-02-25T00:31:32.146Z,21.63
2019-02-25T00:34:01.854Z,27.20
2019-02-25T00:36:32.021Z,26.40
2019-02-25T00:39:04.350Z,26.00
2019-02-25T00:41:33.612Z,25.87
2019-02-25T00:44:06.257Z,25.47
2019-02-25T00:46:36.033Z,28.93
2019-02-25T00:49:06.129Z,26.90
2019-02-25T00:51:37.026Z,29.27
2019-02-25T00:54:07.759Z,27.50
2019-02-25T00:56:37.984Z,26.43
2019-02-25T00:59:07.629Z,27.33
2019-02-25T01:01:40.264Z,24.20
2019-02-25T01:04:09.946Z,28.80
2019-02-25T01:06:40.104Z,23.33
2019-02-25T01:09:11.616Z,22.03
2019-02-25T01:11:41.902Z,24.43
2019-02-25T01:14:12.866Z,25.27
2019-02-25T01:16:42.562Z,26.10
2019-02-25T01:19:12.713Z,25.63
2019-02-25T01:21:42.281Z,25.60
2019-02-25T01:24:12.266Z,22.97
2019-02-25T01:26:41.976Z,32.03
2019-02-25T01:29:13.011Z,24.03
2019-02-25T01:31:43.660Z,24.63
2019-02-25T01:42:27.203Z,26.57
2019-02-25T01:45:00.368Z,25.13
2019-02-25T01:47:30.033Z,27.30
2019-02-25T01:50:03.232Z,25.10
2019-02-25T01:52:47.648Z,28.67
2019-02-25T01:55:28.994Z,28.23
2019-02-25T01:58:01.579Z,24.17
2019-02-25T02:00:45.423Z,25.87
2019-02-25T02:03:17.969Z,27.63
2019-02-25T02:05:48.342Z,24.00
2019-02-25T02:08:18.764Z,29.50
2019-02-25T02:10:57.340Z,24.90
2019-02-25T02:13:34.318Z,23.43
2019-02-25T02:16:05.872Z,27.00
2019-02-25T02:18:39.060Z,26.23
2019-02-25T02:21:23.262Z,25.37
2019-02-25T02:23:59.015Z,23.90
2019-02-25T02:26:33.139Z,28.87
2019-02-25T02:29:04.998Z,26.70
2019-02-25T02:31:42.030Z,25.13
2019-02-25T02:34:19.452Z,25.67
2019-02-25T02:36:52.536Z,26.60
2019-02-25T02:39:22.317Z,26.27
2019-02-25T02:42:19.879Z,22.57
2019-02-25T02:45:14.373Z,23.90
2019-02-25T02:48:34.526Z,30.33
2019-02-25T02:51:04.655Z,30.90
2019-02-25T02:53:34.766Z,27.23
2019-02-25T02:56:04.512Z,25.93
2019-02-25T02:58:36.180Z,26.80
2019-02-25T03:01:08.690Z,25.83
2019-02-25T03:03:38.704Z,27.73
2019-02-25T03:06:08.605Z,28.80
2019-02-25T03:08:38.327Z,25.77
2019-02-25T03:11:07.916Z,25.87
2019-02-25T03:13:40.420Z,29.83
2019-02-25T03:16:10.135Z,25.37
2019-02-25T03:18:40.309Z,23.30
2019-02-25T03:21:10.080Z,22.97
2019-02-25T03:23:42.639Z,25.70
2019-02-25T03:26:12.443Z,25.23
2019-02-25T03:28:42.283Z,23.33
2019-02-25T03:31:13.425Z,24.17
2019-02-25T03:33:46.144Z,26.97
2019-02-25T03:36:20.838Z,25.20
2019-02-25T03:38:56.035Z,26.83
2019-02-25T03:41:28.354Z,22.93
2019-02-25T03:43:58.674Z,23.23
2019-02-25T03:46:29.898Z,25.00
2019-02-25T03:49:01.499Z,24.13
2019-02-25T03:51:31.451Z,21.10
2019-02-25T03:54:02.343Z,21.10
2019-02-25T03:56:34.175Z,22.80
2019-02-25T03:59:05.159Z,21.37
2019-02-25T04:01:34.790Z,16.10
2019-02-25T04:04:08.083Z,19.13
2019-02-25T04:06:43.041Z,23.53
2019-02-25T04:09:13.232Z,18.57
2019-02-25T04:11:43.360Z,17.37
2019-02-25T04:14:13.375Z,24.83
2019-02-25T04:16:46.471Z,20.43
2019-02-25T04:19:16.115Z,16.27
2019-02-25T04:21:45.761Z,20.90
2019-02-25T04:24:16.617Z,18.50
2019-02-25T04:26:47.288Z,18.47
2019-02-25T04:29:17.934Z,25.70
2019-02-25T04:31:48.263Z,20.60
2019-02-25T04:34:21.028Z,17.17
2019-02-25T04:36:50.858Z,20.37
2019-02-25T04:39:22.000Z,21.63
2019-02-25T04:41:53.170Z,17.83
2019-02-25T04:44:25.696Z,19.23
2019-02-25T04:47:02.598Z,17.80
2019-02-25T04:49:34.163Z,21.60
2019-02-25T04:52:07.937Z,21.43
2019-02-25T04:54:47.655Z,25.40
2019-02-25T04:57:28.349Z,17.80
2019-02-25T05:00:02.333Z,19.47
2019-02-25T05:02:33.272Z,19.90
2019-02-25T05:05:05.394Z,20.63
2019-02-25T05:07:35.836Z,19.73
2019-02-25T05:10:07.117Z,22.40
2019-02-25T05:12:37.475Z,19.13
2019-02-25T05:15:08.230Z,20.10
2019-02-25T05:17:38.157Z,19.70
2019-02-25T05:20:07.732Z,20.60
2019-02-25T05:22:41.005Z,22.87
2019-02-25T05:25:11.801Z,21.50
2019-02-25T05:27:42.262Z,19.70
2019-02-25T05:30:12.537Z,21.77
2019-02-25T05:32:42.895Z,21.83
2019-02-25T05:35:13.021Z,28.30
2019-02-25T05:37:44.428Z,21.80
2019-02-25T05:40:15.252Z,21.87
2019-02-25T05:42:45.606Z,18.10
2019-02-25T05:45:16.343Z,23.80
2019-02-25T05:47:47.166Z,20.03
2019-02-25T05:50:17.337Z,19.93
2019-02-25T05:52:50.557Z,21.80
2019-02-25T05:55:20.789Z,19.00
2019-02-25T05:57:51.875Z,21.20
2019-02-25T06:00:24.013Z,25.50
2019-02-25T06:03:00.893Z,22.63
2019-02-25T06:05:40.202Z,18.17
2019-02-25T06:08:12.487Z,19.30
2019-02-25T06:10:42.893Z,21.13
2019-02-25T06:13:12.567Z,19.90
2019-02-25T06:15:42.636Z,19.63
2019-02-25T06:18:12.321Z,21.47
2019-02-25T06:20:44.011Z,19.57
2019-02-25T06:23:18.414Z,19.07
2019-02-25T06:26:22.703Z,20.67
2019-02-25T07:03:36.711Z,21.10
2019-02-25T07:06:31.400Z,20.53
2019-02-25T07:09:21.898Z,20.08
2019-02-25T07:12:16.116Z,21.60
2019-02-25T07:15:13.510Z,21.57
2019-02-25T07:18:06.917Z,20.17
2019-02-25T07:21:01.664Z,20.77
2019-02-25T07:23:43.172Z,20.40
2019-02-25T07:26:43.778Z,23.03
2019-02-25T07:29:35.093Z,20.70
2019-02-25T07:32:30.375Z,19.50
2019-02-25T07:35:38.691Z,20.93
2019-02-25T07:38:39.165Z,21.77
2019-02-25T07:41:30.854Z,22.90
2019-02-25T07:44:28.513Z,20.07
2019-02-25T07:47:20.166Z,23.07
2019-02-25T07:50:15.578Z,19.00
2019-02-25T07:52:52.700Z,22.07
2019-02-25T07:55:44.151Z,21.37
2019-02-25T07:58:31.094Z,22.30
2019-02-25T08:01:12.938Z,18.70
2019-02-25T08:03:58.812Z,20.67
2019-02-25T08:06:35.197Z,22.20
2019-02-25T08:09:29.687Z,21.60
2019-02-25T08:12:07.798Z,19.37
2019-02-25T08:15:02.281Z,20.13
2019-02-25T08:17:50.890Z,20.33
2019-02-25T08:20:30.485Z,19.60
2019-02-25T08:23:22.258Z,18.17
2019-02-25T08:26:00.820Z,18.70
2019-02-25T08:28:49.672Z,19.57
2019-02-25T08:31:36.807Z,21.50
2019-02-25T08:34:41.257Z,20.60
2019-02-25T08:37:46.363Z,18.90
2019-02-25T08:40:55.223Z,21.30
2019-02-25T08:43:39.102Z,20.10
2019-02-25T08:46:17.758Z,15.50
2019-02-25T08:48:55.131Z,18.70
2019-02-25T08:51:24.625Z,21.07
2019-02-25T08:53:56.469Z,23.40
2019-02-25T08:56:26.078Z,17.60
2019-02-25T08:58:56.304Z,21.90
2019-02-25T09:01:25.820Z,18.23
2019-02-25T09:03:55.782Z,18.77
2019-02-25T09:06:25.578Z,23.67
2019-02-25T09:08:55.120Z,30.30
2019-02-25T09:11:24.717Z,18.67
2019-02-25T09:13:54.238Z,18.53
2019-02-25T09:16:48.645Z,20.00
2019-02-25T09:19:18.832Z,19.37
2019-02-25T09:21:48.372Z,18.43
2019-02-25T09:24:17.911Z,19.50
2019-02-25T09:26:47.439Z,18.53
2019-02-25T09:29:17.116Z,22.40
2019-02-25T09:31:47.068Z,20.40
2019-02-25T09:34:19.494Z,20.37
2019-02-25T09:36:50.477Z,18.50
2019-02-25T09:39:20.143Z,13.93
2019-02-25T09:41:55.024Z,18.23
2019-02-25T09:44:24.785Z,16.23
2019-02-25T09:47:02.564Z,21.37
2019-02-25T09:49:29.869Z,17.63
2019-02-25T09:52:06.433Z,18.17
2019-02-25T09:54:39.764Z,17.03
2019-02-25T09:57:09.510Z,18.90
2019-02-25T09:59:41.842Z,13.40
2019-02-25T10:02:11.619Z,18.27
2019-02-25T10:04:48.642Z,18.07
2019-02-25T10:07:18.283Z,20.27
2019-02-25T10:09:57.890Z,16.40
2019-02-25T10:12:30.251Z,17.20
2019-02-25T10:15:01.052Z,14.13
2019-02-25T10:17:30.547Z,21.33
2019-02-25T10:20:00.221Z,19.30
2019-02-25T10:22:32.807Z,13.57
2019-02-25T10:25:06.487Z,17.00
2019-02-25T10:27:37.659Z,16.13
2019-02-25T10:30:09.963Z,13.60
2019-02-25T10:32:43.672Z,17.23
2019-02-25T10:35:17.975Z,12.43
2019-02-25T10:37:47.488Z,12.10
2019-02-25T10:40:24.465Z,13.73
2019-02-25T10:42:51.918Z,12.40
2019-02-25T10:45:23.579Z,12.80
2019-02-25T10:47:58.426Z,15.47
2019-02-25T10:50:33.481Z,9.83
2019-02-25T10:53:15.478Z,12.83
2019-02-25T10:55:53.011Z,10.77
2019-02-25T10:58:25.199Z,8.77
2019-02-25T11:00:55.266Z,11.40
2019-02-25T11:03:24.741Z,11.33
2019-02-25T11:05:56.202Z,24.40
2019-02-25T11:08:28.252Z,10.20
2019-02-25T11:11:04.252Z,8.80
2019-02-25T11:13:34.654Z,11.80
2019-02-25T11:16:05.618Z,12.90
2019-02-25T11:18:35.653Z,8.87
2019-02-25T11:21:06.147Z,8.63
2019-02-25T11:23:37.449Z,9.87
2019-02-25T11:26:16.111Z,11.70
2019-02-25T11:28:46.194Z,9.30
2019-02-25T11:31:18.152Z,8.17
2019-02-25T11:33:50.742Z,10.73
2019-02-25T11:36:21.999Z,9.33
2019-02-25T11:38:51.809Z,8.20
2019-02-25T11:41:21.355Z,8.73
2019-02-25T11:43:52.806Z,7.20
2019-02-25T11:46:25.285Z,10.47
2019-02-25T11:48:54.866Z,13.50
2019-02-25T11:51:27.535Z,7.33
2019-02-25T11:54:02.747Z,10.77
2019-02-25T11:56:33.697Z,9.83
2019-02-25T11:59:14.891Z,9.73
2019-02-25T12:01:48.318Z,7.70
2019-02-25T12:04:20.516Z,9.37
2019-02-25T12:06:58.189Z,6.97
2019-02-25T12:09:36.474Z,8.77
2019-02-25T12:12:06.268Z,6.50
2019-02-25T12:14:36.352Z,8.47
2019-02-25T12:17:05.854Z,6.87
2019-02-25T12:19:36.359Z,9.70
2019-02-25T12:22:07.580Z,9.53
2019-02-25T12:24:37.333Z,8.77
2019-02-25T12:27:12.715Z,7.30
2019-02-25T12:29:44.762Z,8.53
2019-02-25T12:32:14.592Z,6.43
2019-02-25T12:34:47.210Z,7.83
2019-02-25T12:37:16.923Z,8.83
2019-02-25T12:39:47.320Z,9.37
2019-02-25T12:42:20.613Z,8.07
2019-02-25T12:44:52.385Z,6.10
2019-02-25T12:47:24.190Z,6.67
2019-02-25T12:49:54.656Z,6.63
2019-02-25T12:52:24.332Z,6.80
2019-02-25T12:54:54.298Z,5.77
2019-02-25T12:57:24.671Z,8.27
2019-02-25T12:59:54.994Z,8.77
2019-02-25T13:02:24.848Z,8.87
2019-02-25T13:04:56.764Z,6.07
2019-02-25T13:07:27.923Z,7.47
2019-02-25T13:09:59.064Z,9.27
2019-02-25T13:12:51.710Z,6.93
2019-02-25T13:15:22.153Z,7.37
2019-02-25T13:17:52.719Z,8.60
2019-02-25T13:20:29.514Z,9.53
2019-02-25T13:23:32.380Z,8.13
2019-02-25T13:26:31.672Z,7.50
2019-02-25T13:36:25.146Z,6.93
2019-02-25T13:38:55.106Z,6.60
2019-02-25T13:41:52.685Z,7.20
2019-02-25T14:16:19.658Z,11.03
2019-02-25T14:18:59.312Z,8.60
2019-02-25T17:30:20.213Z,10.63
2019-02-25T17:32:51.085Z,12.73
2019-02-25T17:35:23.558Z,11.57
2019-02-25T17:37:58.904Z,10.40
2019-02-25T17:40:31.505Z,12.07
2019-02-25T17:43:01.150Z,10.93
2019-02-25T17:45:32.451Z,16.48
2019-02-25T17:48:05.407Z,13.35
2019-02-25T17:50:35.339Z,15.10
2019-02-25T17:53:09.434Z,14.47
2019-02-25T17:55:39.548Z,17.40
2019-02-25T17:58:09.489Z,16.77
2019-02-25T18:00:42.304Z,13.47
2019-02-25T18:03:11.625Z,14.13
2019-02-25T18:05:44.008Z,12.90
2019-02-25T18:08:15.390Z,14.30
2019-02-25T18:10:45.322Z,14.50
2019-02-25T18:13:15.725Z,19.83
2019-02-25T18:15:47.667Z,15.73
2019-02-25T18:18:17.715Z,14.47
2019-02-25T18:20:53.044Z,17.70
2019-02-25T18:23:21.930Z,16.30
2019-02-25T18:25:53.590Z,19.93
2019-02-25T18:28:23.803Z,16.07
2019-02-25T18:30:53.666Z,19.43
2019-02-25T18:33:26.886Z,14.60
2019-02-25T18:35:57.980Z,16.87
2019-02-25T18:38:31.844Z,13.40
2019-02-25T18:41:02.430Z,18.90
2019-02-25T18:43:33.158Z,25.83
2019-02-25T18:46:04.924Z,20.37
2019-02-25T18:48:34.267Z,16.23
2019-02-25T18:51:07.071Z,20.83
2019-02-25T18:53:40.752Z,18.43
2019-02-25T18:56:11.851Z,21.63
2019-02-25T18:58:42.355Z,16.47
2019-02-25T19:01:13.317Z,19.63
2019-02-25T19:03:46.304Z,19.97
2019-02-25T19:06:17.595Z,22.67
2019-02-25T19:08:49.389Z,22.30
2019-02-25T19:11:21.364Z,17.30
2019-02-25T19:13:53.958Z,20.07
2019-02-25T19:16:24.680Z,15.83
2019-02-25T19:18:54.782Z,16.67
2019-02-25T19:21:27.746Z,15.57
2019-02-25T19:23:58.138Z,17.13
2019-02-25T19:26:28.331Z,22.43
2019-02-25T19:28:59.118Z,17.50
2019-02-25T19:31:31.491Z,16.93
2019-02-25T19:34:01.446Z,22.80
2019-02-25T19:36:32.517Z,22.90
2019-02-25T19:39:09.366Z,27.63
2019-02-25T19:41:45.031Z,18.00
2019-02-25T19:44:12.754Z,16.73
2019-02-25T19:46:45.669Z,23.87
2019-02-25T19:49:18.118Z,20.30
2019-02-25T19:51:50.198Z,19.70
2019-02-25T19:54:21.134Z,22.87
2019-02-25T19:56:53.194Z,26.37
2019-02-25T19:59:28.469Z,29.40
2019-02-25T20:01:57.561Z,25.37
2019-02-25T20:04:27.291Z,20.13
2019-02-25T20:06:58.517Z,21.83
2019-02-25T20:09:28.359Z,25.90
2019-02-25T20:12:03.297Z,23.47
2019-02-25T20:14:32.924Z,20.50
2019-02-25T20:17:02.766Z,23.03
2019-02-25T20:19:32.459Z,26.03
2019-02-25T20:22:05.510Z,21.67
2019-02-25T20:24:35.351Z,22.40
2019-02-25T20:27:07.493Z,21.03
2019-02-25T20:29:37.830Z,19.53
2019-02-25T20:32:10.187Z,20.77
2019-02-25T20:34:40.744Z,21.07
2019-02-25T20:37:13.047Z,20.03
2019-02-25T20:39:44.600Z,20.43
2019-02-25T20:42:17.317Z,20.97
2019-02-25T20:44:46.697Z,19.73
2019-02-25T20:47:28.510Z,23.37
2019-02-25T20:49:54.170Z,19.57
2019-02-25T20:52:27.456Z,23.70
2019-02-25T20:54:57.155Z,26.30
2019-02-25T20:57:26.823Z,23.03
2019-02-25T20:59:59.015Z,22.50
2019-02-25T21:02:28.456Z,20.50
2019-02-25T21:04:58.454Z,20.93
2019-02-25T21:07:31.737Z,21.67
2019-02-25T21:10:07.511Z,20.27
2019-02-25T21:12:38.212Z,21.83
2019-02-25T21:15:11.245Z,22.87
2019-02-25T21:17:40.690Z,20.77
2019-02-25T21:20:16.401Z,22.50
2019-02-25T21:22:48.088Z,26.43
2019-02-25T21:25:22.071Z,21.67
2019-02-25T21:27:49.333Z,22.73
2019-02-25T21:30:22.996Z,23.90
2019-02-25T21:32:54.329Z,26.00
2019-02-25T21:35:27.585Z,23.87
2019-02-25T21:37:55.857Z,22.43
2019-02-25T21:40:38.431Z,24.50
2019-02-25T21:43:14.386Z,19.70
2019-02-25T21:45:46.108Z,21.27
2019-02-25T21:48:16.186Z,22.33
2019-02-25T21:50:45.838Z,22.20
2019-02-25T21:53:16.045Z,23.07
2019-02-25T21:55:46.970Z,21.50
2019-02-25T21:58:18.441Z,24.17
2019-02-25T22:00:48.151Z,23.00
2019-02-25T22:03:20.160Z,19.90
2019-02-25T22:05:54.090Z,20.13
2019-02-25T22:08:24.452Z,24.63
2019-02-25T22:10:58.244Z,22.53
2019-02-25T22:13:27.679Z,20.50
2019-02-25T22:16:01.804Z,23.10
2019-02-25T22:18:32.521Z,24.10
2019-02-25T22:21:05.133Z,21.23
2019-02-25T22:23:35.449Z,24.10
2019-02-25T22:26:09.540Z,22.33
2019-02-25T22:28:39.465Z,19.97
2019-02-25T22:31:10.972Z,20.53
2019-02-25T22:33:43.568Z,24.97
2019-02-25T22:36:13.363Z,23.40
2019-02-25T22:38:42.922Z,23.17
2019-02-25T22:41:16.756Z,20.83
2019-02-25T22:43:48.203Z,21.83
2019-02-25T22:46:18.902Z,23.93
2019-02-25T22:48:50.946Z,24.27
2019-02-25T22:51:22.247Z,21.50
2019-02-25T22:53:52.223Z,29.37
2019-02-25T22:56:23.695Z,24.83
2019-02-25T22:58:59.976Z,21.60
2019-02-25T23:01:36.836Z,25.57
2019-02-25T23:04:06.437Z,25.67
2019-02-25T23:06:42.431Z,24.37
2019-02-25T23:09:14.384Z,25.57
2019-02-25T23:11:45.939Z,23.33
2019-02-25T23:14:16.269Z,22.77
2019-02-25T23:16:47.937Z,23.60
2019-02-25T23:19:18.082Z,20.50
2019-02-25T23:21:48.676Z,20.20
2019-02-25T23:24:21.806Z,37.80
2019-02-25T23:26:53.040Z,22.83
2019-02-25T23:29:26.670Z,22.80
2019-02-25T23:31:53.725Z,21.20
2019-02-25T23:34:23.188Z,19.90
2019-02-25T23:36:54.405Z,19.33
2019-02-25T23:39:24.016Z,23.53
2019-02-25T23:41:56.219Z,37.60
2019-02-25T23:44:26.228Z,19.40
2019-02-25T23:46:59.669Z,19.90
2019-02-25T23:49:27.745Z,22.50
2019-02-25T23:51:57.228Z,26.77
2019-02-25T23:54:28.032Z,26.90
2019-02-25T23:57:02.016Z,24.27
2019-02-25T23:59:31.906Z,23.30
